createdAt,value
2023-05-11T00:01:36.662Z,10.33
2023-05-11T00:04:03.443Z,9.07
2023-05-11T00:06:30.188Z,9.07
2023-05-11T00:08:56.833Z,8.63
2023-05-11T00:11:23.799Z,9.07
2023-05-11T00:13:50.721Z,8.43
2023-05-11T00:16:17.496Z,8.20
2023-05-11T00:18:44.318Z,8.80
2023-05-11T00:21:11.029Z,8.60
2023-05-11T00:23:37.688Z,8.77
2023-05-11T00:26:04.423Z,9.53
2023-05-11T00:28:31.151Z,9.40
2023-05-11T00:30:58.334Z,8.67
2023-05-11T00:33:26.080Z,8.50
2023-05-11T00:35:52.951Z,9.13
2023-05-11T00:38:20.832Z,9.10
2023-05-11T00:40:49.491Z,9.13
2023-05-11T00:43:16.338Z,8.77
2023-05-11T00:45:44.544Z,9.93
2023-05-11T00:48:11.382Z,9.00
2023-05-11T00:50:38.339Z,8.63
2023-05-11T00:53:05.080Z,9.23
2023-05-11T00:55:31.777Z,9.13
2023-05-11T00:57:58.559Z,9.33
2023-05-11T01:00:25.795Z,9.33
2023-05-11T01:02:53.416Z,9.37
2023-05-11T01:05:20.537Z,9.00
2023-05-11T01:07:58.286Z,9.43
2023-05-11T01:10:41.773Z,8.60
2023-05-11T01:13:22.531Z,9.10
2023-05-11T01:15:56.227Z,8.80
2023-05-11T01:18:33.640Z,9.27
2023-05-11T01:21:02.134Z,8.63
2023-05-11T01:23:43.955Z,8.97
2023-05-11T01:26:26.583Z,9.13
2023-05-11T01:29:22.434Z,8.90
2023-05-11T01:31:50.531Z,8.93
2023-05-11T01:34:24.602Z,9.17
2023-05-11T01:37:00.738Z,8.97
2023-05-11T01:39:38.339Z,9.33
2023-05-11T01:42:09.926Z,8.77
2023-05-11T01:44:42.984Z,8.77
2023-05-11T01:47:11.994Z,9.70
2023-05-11T01:49:40.688Z,8.57
2023-05-11T01:52:09.826Z,9.57
2023-05-11T01:54:38.613Z,10.30
2023-05-11T01:57:06.099Z,9.63
2023-05-11T01:59:33.575Z,10.07
2023-05-11T02:02:02.300Z,10.23
2023-05-11T02:04:30.502Z,10.13
2023-05-11T02:06:59.440Z,9.83
2023-05-11T02:09:27.776Z,9.87
2023-05-11T02:11:57.571Z,10.80
2023-05-11T02:14:25.525Z,10.83
2023-05-11T02:16:53.253Z,10.80
2023-05-11T02:19:21.201Z,10.57
2023-05-11T02:21:49.684Z,10.07
2023-05-11T02:24:18.133Z,10.27
2023-05-11T02:26:45.055Z,10.37
2023-05-11T02:29:12.000Z,9.97
2023-05-11T02:31:44.514Z,10.20
2023-05-11T02:34:20.925Z,10.57
2023-05-11T02:39:38.598Z,10.43
2023-05-11T02:42:27.004Z,10.10
2023-05-11T02:45:02.964Z,10.20
2023-05-11T02:47:38.416Z,10.23
2023-05-11T02:50:08.305Z,10.80
2023-05-11T02:52:38.430Z,10.10
2023-05-11T02:55:06.927Z,9.63
2023-05-11T02:57:37.041Z,10.93
2023-05-11T03:00:19.122Z,11.40
2023-05-11T03:02:46.315Z,10.80
2023-05-11T03:05:13.546Z,10.50
2023-05-11T03:07:45.131Z,10.50
2023-05-11T03:10:13.401Z,11.17
2023-05-11T03:12:40.641Z,10.80
2023-05-11T03:15:12.676Z,10.90
2023-05-11T03:17:41.255Z,10.00
2023-05-11T03:20:10.011Z,11.50
2023-05-11T03:22:38.133Z,12.43
2023-05-11T03:25:07.468Z,12.03
2023-05-11T03:27:36.330Z,12.40
2023-05-11T03:30:14.519Z,11.17
2023-05-11T03:33:07.503Z,12.03
2023-05-11T03:36:12.646Z,11.07
2023-05-11T03:38:42.972Z,12.07
2023-05-11T03:41:12.145Z,10.97
2023-05-11T03:44:07.176Z,11.23
2023-05-11T03:46:36.588Z,12.00
2023-05-11T03:49:10.856Z,11.33
2023-05-11T03:51:43.451Z,12.37
2023-05-11T03:54:14.904Z,12.63
2023-05-11T03:56:43.441Z,11.27
2023-05-11T03:59:16.789Z,11.53
2023-05-11T04:01:44.653Z,12.37
2023-05-11T04:04:14.811Z,12.07
2023-05-11T04:06:52.468Z,12.40
2023-05-11T04:09:26.201Z,11.83
2023-05-11T04:12:04.598Z,13.10
2023-05-11T04:14:36.518Z,12.00
2023-05-11T04:17:08.687Z,13.33
2023-05-11T04:19:37.193Z,12.50
2023-05-11T04:22:09.345Z,11.43
2023-05-11T04:24:55.566Z,11.03
2023-05-11T04:27:23.283Z,11.00
2023-05-11T04:29:55.211Z,11.27
2023-05-11T04:32:22.319Z,10.50
2023-05-11T04:34:50.149Z,11.03
2023-05-11T04:37:21.218Z,10.13
2023-05-11T04:40:06.069Z,11.60
2023-05-11T04:42:38.182Z,10.40
2023-05-11T04:45:06.215Z,10.87
2023-05-11T04:47:36.709Z,10.90
2023-05-11T04:50:04.581Z,12.90
2023-05-11T04:52:36.341Z,13.33
2023-05-11T04:55:31.290Z,13.20
2023-05-11T04:58:17.128Z,14.53
2023-05-11T05:00:54.675Z,14.10
2023-05-11T05:03:28.719Z,13.77
2023-05-11T05:05:57.287Z,14.83
2023-05-11T05:08:30.407Z,14.03
2023-05-11T05:11:01.415Z,14.40
2023-05-11T05:13:31.915Z,15.03
2023-05-11T05:16:00.190Z,15.03
2023-05-11T05:18:29.805Z,14.33
2023-05-11T05:20:57.057Z,13.87
2023-05-11T05:24:09.182Z,13.43
2023-05-11T05:26:36.301Z,14.53
2023-05-11T05:29:07.240Z,12.73
2023-05-11T05:31:35.767Z,13.60
2023-05-11T05:34:02.981Z,13.90
2023-05-11T05:36:34.831Z,14.63
2023-05-11T05:39:10.092Z,13.67
2023-05-11T05:41:37.122Z,12.07
2023-05-11T05:44:07.228Z,11.30
2023-05-11T05:46:35.651Z,12.73
2023-05-11T05:49:10.241Z,12.17
2023-05-11T05:51:37.702Z,12.00
2023-05-11T05:54:05.110Z,11.10
2023-05-11T05:56:36.004Z,12.80
2023-05-11T05:59:04.112Z,13.10
2023-05-11T06:01:33.117Z,12.73
2023-05-11T06:04:04.797Z,11.37
2023-05-11T06:06:38.041Z,12.13
2023-05-11T06:09:11.541Z,12.47
2023-05-11T06:11:43.606Z,12.30
2023-05-11T06:14:11.089Z,11.70
2023-05-11T06:31:13.380Z,10.57
2023-05-11T06:40:37.484Z,11.90
2023-05-11T07:01:18.260Z,11.03
2023-05-11T07:04:28.756Z,11.60
2023-05-11T07:07:04.457Z,10.50
2023-05-11T07:13:33.478Z,11.43
2023-05-11T07:16:06.903Z,11.53
2023-05-11T07:26:09.745Z,12.73
2023-05-11T07:28:37.055Z,11.80
2023-05-11T07:31:04.257Z,9.80
2023-05-11T07:33:31.133Z,10.50
2023-05-11T07:35:57.919Z,10.83
2023-05-11T07:38:24.656Z,11.50
2023-05-11T07:40:51.386Z,10.93
2023-05-11T07:43:18.090Z,11.13
2023-05-11T07:45:45.498Z,9.20
2023-05-11T07:48:12.341Z,9.30
2023-05-11T07:50:39.032Z,9.93
2023-05-11T07:53:05.778Z,9.80
2023-05-11T07:55:33.302Z,8.63
2023-05-11T07:57:59.993Z,8.25
2023-05-11T08:00:26.875Z,7.85
2023-05-11T08:02:53.861Z,9.13
2023-05-11T08:05:21.244Z,7.40
2023-05-11T08:07:48.172Z,7.30
2023-05-11T08:10:14.883Z,6.72
2023-05-11T08:12:41.587Z,7.10
2023-05-11T08:15:08.822Z,6.70
2023-05-11T08:17:36.469Z,7.50
2023-05-11T08:20:06.752Z,6.45
2023-05-11T08:22:33.498Z,6.43
2023-05-11T08:25:00.201Z,6.35
2023-05-11T08:27:26.870Z,6.28
2023-05-11T08:29:55.065Z,5.63
2023-05-11T08:32:21.820Z,5.97
2023-05-11T08:34:48.539Z,5.95
2023-05-11T08:37:15.376Z,5.93
2023-05-11T08:42:14.575Z,5.43
2023-05-11T08:44:43.248Z,5.65
2023-05-11T08:49:41.188Z,4.13
2023-05-11T08:52:08.463Z,4.13
2023-05-11T08:54:35.227Z,4.03
2023-05-11T08:57:02.945Z,4.15
2023-05-11T08:59:30.063Z,2.58
2023-05-11T09:01:59.411Z,3.13
2023-05-11T09:04:27.180Z,3.33
2023-05-11T09:06:54.907Z,3.17
2023-05-11T09:09:21.651Z,3.17
2023-05-11T09:11:49.061Z,3.25
2023-05-11T09:14:15.842Z,2.55
2023-05-11T09:16:42.718Z,2.25
2023-05-11T09:19:15.885Z,2.05
2023-05-11T09:21:42.755Z,1.80
2023-05-11T09:24:13.087Z,1.70
2023-05-11T09:26:40.226Z,2.13
2023-05-11T09:29:07.132Z,1.50
2023-05-11T09:31:45.178Z,1.17
2023-05-11T09:34:21.627Z,1.00
2023-05-11T09:36:53.100Z,1.38
2023-05-11T09:39:42.070Z,1.45
2023-05-11T09:42:21.747Z,1.63
2023-05-11T09:44:48.963Z,1.50
2023-05-11T09:47:21.227Z,1.52
2023-05-11T09:49:48.625Z,1.55
2023-05-11T09:52:18.606Z,1.80
2023-05-11T09:54:48.309Z,1.77
2023-05-11T09:57:23.009Z,1.83
2023-05-11T09:59:50.211Z,1.70
2023-05-11T10:02:29.730Z,1.60
2023-05-11T10:05:01.430Z,1.58
2023-05-11T10:07:36.035Z,1.55
2023-05-11T10:10:05.397Z,1.77
2023-05-11T10:12:33.795Z,1.50
2023-05-11T10:15:08.861Z,1.33
2023-05-11T10:17:36.973Z,1.23
2023-05-11T10:20:05.734Z,1.40
2023-05-11T10:22:32.844Z,1.30
2023-05-11T10:25:00.357Z,1.30
2023-05-11T10:27:27.612Z,1.30
2023-05-11T10:29:54.462Z,1.30
2023-05-11T10:32:21.697Z,1.40
2023-05-11T10:34:50.462Z,1.20
2023-05-11T10:37:17.648Z,1.20
2023-05-11T10:39:48.485Z,1.20
2023-05-11T10:42:33.620Z,1.00
2023-05-11T10:45:22.080Z,1.02
2023-05-11T10:48:20.049Z,1.25
2023-05-11T10:51:02.030Z,1.00
2023-05-11T10:53:53.456Z,0.70
2023-05-11T10:56:38.706Z,0.60
2023-05-11T10:59:22.397Z,1.00
2023-05-11T11:01:58.886Z,0.90
2023-05-11T11:04:27.243Z,1.10
2023-05-11T11:07:06.013Z,0.90
2023-05-11T11:10:01.583Z,0.82
2023-05-11T11:12:29.972Z,0.85
2023-05-11T11:15:06.177Z,0.90
2023-05-11T11:17:35.894Z,0.98
2023-05-11T11:20:04.630Z,0.80
2023-05-11T11:22:41.639Z,0.90
2023-05-11T11:25:09.875Z,0.70
2023-05-11T11:27:45.886Z,0.68
2023-05-11T11:30:22.006Z,1.05
2023-05-11T11:32:54.132Z,0.90
2023-05-11T11:35:39.500Z,0.82
2023-05-11T11:38:11.511Z,0.77
2023-05-11T11:43:22.011Z,0.60
2023-05-11T11:45:53.159Z,0.50
2023-05-11T11:48:29.448Z,0.45
2023-05-11T11:51:09.078Z,0.60
2023-05-11T11:53:40.739Z,0.50
2023-05-11T11:56:09.109Z,0.50
2023-05-11T11:58:41.831Z,0.40
2023-05-11T12:01:10.384Z,0.60
2023-05-11T12:03:37.977Z,0.40
2023-05-11T12:06:09.556Z,0.52
2023-05-11T12:08:38.190Z,0.68
2023-05-11T12:11:05.808Z,0.70
2023-05-11T12:13:34.133Z,0.73
2023-05-11T12:16:13.927Z,0.60
2023-05-11T12:18:42.416Z,0.60
2023-05-11T12:21:23.028Z,0.70
2023-05-11T12:23:57.697Z,0.80
2023-05-11T12:26:26.325Z,0.60
2023-05-11T12:29:10.695Z,0.80
2023-05-11T12:31:41.746Z,0.70
2023-05-11T12:34:17.892Z,0.80
2023-05-11T12:36:46.126Z,0.73
2023-05-11T12:39:23.610Z,0.60
2023-05-11T12:41:52.957Z,0.77
2023-05-11T12:44:22.270Z,1.20
2023-05-11T12:46:50.168Z,0.63
2023-05-11T12:49:25.074Z,0.70
2023-05-11T12:52:03.113Z,0.60
2023-05-11T12:54:31.258Z,0.65
2023-05-11T12:56:58.551Z,0.60
2023-05-11T12:59:26.416Z,0.70
2023-05-11T13:01:56.071Z,0.95
2023-05-11T13:04:30.555Z,0.52
2023-05-11T13:06:57.473Z,0.70
2023-05-11T13:09:27.463Z,0.70
2023-05-11T13:12:20.821Z,0.68
2023-05-11T13:14:49.439Z,0.70
2023-05-11T13:17:36.986Z,1.60
2023-05-11T13:20:19.757Z,1.60
2023-05-11T13:22:48.207Z,1.60
2023-05-11T13:25:16.833Z,1.63
2023-05-11T13:27:43.912Z,1.90
2023-05-11T13:30:11.484Z,1.80
2023-05-11T13:32:39.047Z,1.60
2023-05-11T13:35:06.986Z,1.50
2023-05-11T13:37:33.731Z,1.80
2023-05-11T13:40:00.870Z,2.20
2023-05-11T13:42:28.205Z,2.15
2023-05-11T13:44:55.048Z,3.72
2023-05-11T13:47:21.743Z,3.92
2023-05-11T13:49:48.931Z,4.35
2023-05-11T13:52:15.954Z,3.67
2023-05-11T13:54:42.667Z,4.00
2023-05-11T13:57:09.461Z,3.70
2023-05-11T13:59:36.285Z,3.80
2023-05-11T14:02:03.190Z,3.40
2023-05-11T14:04:29.924Z,3.70
2023-05-11T14:06:56.929Z,4.60
2023-05-11T14:09:23.878Z,3.92
2023-05-11T14:11:50.797Z,4.60
2023-05-11T14:14:18.038Z,4.88
2023-05-11T14:16:45.021Z,4.50
2023-05-11T14:19:12.029Z,4.47
2023-05-11T14:21:38.893Z,4.45
2023-05-11T14:24:11.993Z,4.70
2023-05-11T14:26:40.310Z,5.50
2023-05-11T14:29:07.509Z,5.57
2023-05-11T14:31:35.760Z,4.38
2023-05-11T14:34:03.903Z,4.95
2023-05-11T14:36:31.774Z,5.53
2023-05-11T14:38:58.435Z,6.38
2023-05-11T14:41:25.646Z,5.75
2023-05-11T14:43:52.411Z,5.30
2023-05-11T14:46:19.576Z,6.60
2023-05-11T14:48:46.420Z,6.03
2023-05-11T14:51:13.124Z,7.10
2023-05-11T14:53:39.918Z,6.70
2023-05-11T14:56:07.230Z,7.10
2023-05-11T14:58:33.894Z,6.72
2023-05-11T15:01:00.801Z,7.35
2023-05-11T15:03:27.900Z,7.82
2023-05-11T15:05:54.648Z,6.57
2023-05-11T15:08:29.797Z,6.22
2023-05-11T15:10:57.416Z,3.85
2023-05-11T15:13:24.243Z,3.47
2023-05-11T15:15:51.619Z,4.25
2023-05-11T15:18:18.853Z,4.30
2023-05-11T15:20:46.630Z,4.22
2023-05-11T15:23:16.754Z,4.22
2023-05-11T15:25:44.842Z,4.13
2023-05-11T15:28:11.940Z,4.70
2023-05-11T15:30:38.734Z,3.63
2023-05-11T15:33:05.643Z,3.47
2023-05-11T15:35:35.582Z,3.03
2023-05-11T15:38:03.545Z,3.45
2023-05-11T15:40:30.668Z,2.60
2023-05-11T15:42:58.797Z,3.80
2023-05-11T15:45:26.166Z,3.72
2023-05-11T15:47:54.068Z,4.00
2023-05-11T15:50:21.219Z,4.88
2023-05-11T15:52:48.202Z,4.55
2023-05-11T15:55:14.947Z,5.63
2023-05-11T15:57:41.716Z,4.75
2023-05-11T16:00:10.577Z,4.88
2023-05-11T16:02:37.570Z,4.80
2023-05-11T16:05:04.551Z,4.95
2023-05-11T16:07:31.496Z,5.45
2023-05-11T16:09:58.182Z,5.50
2023-05-11T16:12:24.895Z,5.82
2023-05-11T16:14:51.645Z,5.85
2023-05-11T16:17:18.458Z,6.07
2023-05-11T16:19:45.187Z,5.75
2023-05-11T16:22:12.098Z,5.50
2023-05-11T16:24:38.925Z,5.63
2023-05-11T16:27:05.760Z,5.55
2023-05-11T16:29:32.555Z,5.97
2023-05-11T16:31:59.304Z,5.82
2023-05-11T16:34:27.227Z,6.00
2023-05-11T16:36:54.052Z,5.32
2023-05-11T16:39:21.538Z,5.90
2023-05-11T16:41:48.308Z,5.10
2023-05-11T16:44:15.042Z,5.60
2023-05-11T16:46:41.873Z,5.47
2023-05-11T16:49:08.600Z,5.82
2023-05-11T16:51:35.375Z,5.72
2023-05-11T16:54:02.172Z,5.57
2023-05-11T16:56:28.862Z,5.35
2023-05-11T16:58:55.520Z,5.80
2023-05-11T17:01:22.242Z,5.38
2023-05-11T17:03:49.114Z,6.43
2023-05-11T17:06:20.709Z,5.28
2023-05-11T17:08:47.952Z,5.50
2023-05-11T17:11:14.650Z,6.22
2023-05-11T17:13:41.368Z,6.47
2023-05-11T17:16:08.131Z,7.10
2023-05-11T17:18:35.034Z,6.38
2023-05-11T17:21:01.868Z,6.20
2023-05-11T17:23:30.230Z,5.93
2023-05-11T17:25:57.310Z,6.50
2023-05-11T17:28:24.220Z,6.72
2023-05-11T17:30:54.286Z,6.55
2023-05-11T17:33:21.099Z,6.07
2023-05-11T17:35:48.246Z,5.32
2023-05-11T17:38:15.074Z,5.20
2023-05-11T17:40:41.850Z,5.57
2023-05-11T17:43:08.539Z,5.53
2023-05-11T17:45:35.672Z,5.95
2023-05-11T17:48:02.438Z,5.35
2023-05-11T17:50:29.231Z,5.40
2023-05-11T17:52:55.924Z,5.15
2023-05-11T17:55:22.669Z,5.47
2023-05-11T17:57:51.813Z,5.22
2023-05-11T18:00:19.090Z,5.60
2023-05-11T18:02:51.237Z,6.25
2023-05-11T18:05:18.406Z,4.18
2023-05-11T18:07:45.178Z,5.03
2023-05-11T18:10:12.203Z,5.30
2023-05-11T18:12:38.938Z,6.35
2023-05-11T18:15:06.148Z,6.00
2023-05-11T18:17:33.072Z,6.57
2023-05-11T18:19:59.877Z,6.10
2023-05-11T18:22:26.559Z,5.82
2023-05-11T18:24:53.504Z,4.90
2023-05-11T18:27:20.249Z,5.50
2023-05-11T18:29:46.934Z,5.40
2023-05-11T18:32:13.617Z,5.43
2023-05-11T18:34:41.345Z,5.97
2023-05-11T18:37:09.191Z,5.25
2023-05-11T18:39:36.124Z,5.63
2023-05-11T18:42:02.787Z,6.70
2023-05-11T18:44:29.481Z,6.18
2023-05-11T18:46:56.223Z,5.85
2023-05-11T18:49:23.013Z,6.72
2023-05-11T18:51:49.735Z,6.90
2023-05-11T18:54:16.494Z,6.25
2023-05-11T18:56:43.236Z,6.22
2023-05-11T18:59:09.940Z,6.40
2023-05-11T19:01:46.949Z,5.68
2023-05-11T19:04:17.634Z,5.40
2023-05-11T19:06:44.325Z,5.60
2023-05-11T19:09:11.096Z,4.65
2023-05-11T19:11:37.969Z,5.15
2023-05-11T19:14:04.654Z,4.13
2023-05-11T19:16:32.719Z,4.20
2023-05-11T19:18:59.732Z,4.13
2023-05-11T19:21:26.555Z,3.90
2023-05-11T19:23:53.211Z,3.80
2023-05-11T19:26:20.066Z,4.03
2023-05-11T19:28:46.744Z,3.80
2023-05-11T19:31:13.442Z,4.28
2023-05-11T19:33:40.302Z,4.60
2023-05-11T19:36:07.235Z,3.83
2023-05-11T19:38:35.878Z,3.67
2023-05-11T19:41:03.452Z,4.27
2023-05-11T19:43:30.169Z,4.10
2023-05-11T19:45:56.903Z,4.47
2023-05-11T19:48:23.606Z,4.30
2023-05-11T19:50:50.303Z,4.00
2023-05-11T19:53:17.002Z,4.17
2023-05-11T19:55:45.407Z,4.33
2023-05-11T19:58:14.178Z,5.10
2023-05-11T20:00:41.362Z,5.03
2023-05-11T20:03:08.469Z,4.63
2023-05-11T20:05:35.299Z,4.67
2023-05-11T20:08:01.986Z,5.17
2023-05-11T20:10:28.700Z,4.17
2023-05-11T20:12:56.423Z,4.83
2023-05-11T20:15:23.225Z,5.03
2023-05-11T20:17:50.239Z,5.63
2023-05-11T20:20:17.139Z,5.70
2023-05-11T20:22:44.361Z,5.37
2023-05-11T20:25:17.837Z,5.40
2023-05-11T20:27:45.901Z,5.20
2023-05-11T20:30:13.083Z,4.93
2023-05-11T20:32:39.836Z,5.33
2023-05-11T20:35:07.071Z,5.27
2023-05-11T20:37:33.789Z,4.43
2023-05-11T20:40:00.661Z,5.33
2023-05-11T20:42:27.490Z,6.23
2023-05-11T20:44:54.274Z,5.60
2023-05-11T20:47:20.948Z,5.43
2023-05-11T20:49:47.826Z,5.90
2023-05-11T20:52:14.578Z,5.93
2023-05-11T20:54:41.469Z,5.10
2023-05-11T20:57:08.329Z,5.07
2023-05-11T21:02:04.901Z,4.87
2023-05-11T21:04:31.713Z,5.20
2023-05-11T21:06:58.584Z,5.40
2023-05-11T21:09:25.592Z,5.67
2023-05-11T21:11:52.432Z,5.97
2023-05-11T21:14:19.133Z,6.37
2023-05-11T21:16:46.142Z,6.50
2023-05-11T21:19:13.006Z,7.20
2023-05-11T21:21:39.675Z,7.47
2023-05-11T21:24:06.417Z,7.83
2023-05-11T21:26:33.194Z,7.80
2023-05-11T21:28:59.937Z,7.87
2023-05-11T21:31:27.148Z,8.40
2023-05-11T21:33:54.406Z,8.10
2023-05-11T21:36:22.204Z,9.30
2023-05-11T21:38:49.650Z,10.07
2023-05-11T21:41:16.921Z,8.93
2023-05-11T21:43:43.680Z,7.67
2023-05-11T21:46:10.447Z,7.10
2023-05-11T21:48:37.144Z,6.60
2023-05-11T21:51:04.130Z,5.77
2023-05-11T21:53:31.023Z,5.03
2023-05-11T21:55:57.805Z,5.13
2023-05-11T21:58:24.560Z,4.57
2023-05-11T22:00:51.302Z,4.63
2023-05-11T22:03:18.064Z,4.60
2023-05-11T22:05:44.822Z,4.67
2023-05-11T22:08:15.567Z,3.97
2023-05-11T22:10:43.308Z,5.13
2023-05-11T22:13:10.387Z,5.30
2023-05-11T22:15:37.274Z,4.80
2023-05-11T22:18:05.043Z,5.20
2023-05-11T22:20:32.080Z,5.10
2023-05-11T22:22:59.350Z,5.83
2023-05-11T22:25:26.551Z,5.60
2023-05-11T22:27:53.345Z,5.60
2023-05-11T22:30:20.561Z,6.50
2023-05-11T22:32:47.495Z,6.70
2023-05-11T22:35:14.422Z,6.50
2023-05-11T22:37:41.159Z,6.50
2023-05-11T22:40:08.769Z,7.10
2023-05-11T22:42:35.690Z,6.50
2023-05-11T22:45:02.486Z,6.60
2023-05-11T22:47:29.444Z,6.73
2023-05-11T22:49:56.426Z,7.70
2023-05-11T22:52:23.165Z,7.33
2023-05-11T22:54:54.674Z,7.00
2023-05-11T22:57:24.230Z,6.57
2023-05-11T22:59:51.022Z,7.53
2023-05-11T23:02:17.874Z,7.90
2023-05-11T23:04:52.427Z,7.50
2023-05-11T23:07:19.680Z,7.60
2023-05-11T23:09:46.593Z,9.03
2023-05-11T23:12:13.527Z,8.93
2023-05-11T23:14:40.372Z,9.53
2023-05-11T23:17:07.172Z,9.37
2023-05-11T23:19:33.977Z,10.10
2023-05-11T23:22:00.900Z,9.40
2023-05-11T23:24:28.894Z,9.77
2023-05-11T23:26:55.959Z,9.43
2023-05-11T23:29:22.826Z,9.13
2023-05-11T23:31:51.024Z,9.67
2023-05-11T23:34:17.871Z,9.20
2023-05-11T23:36:44.704Z,9.63
2023-05-11T23:39:11.403Z,9.87
2023-05-11T23:41:38.499Z,8.93
2023-05-11T23:44:05.437Z,9.23
2023-05-11T23:46:32.594Z,8.73
2023-05-11T23:48:59.304Z,9.50
2023-05-11T23:51:25.971Z,8.40
2023-05-11T23:53:52.784Z,9.27
2023-05-11T23:56:19.526Z,7.83
2023-05-11T23:58:46.367Z,8.50
